Time;durP1;ratioP1;P1;durP2;ratioP2;P2;SDS_P1;SDS_P2;PMS_P1;PMS_P2;Temp;Humidity;BMP_temperature;BMP_pressure;BME280_temperature;BME280_humidity;BME280_pressure;Samples;Min_cycle;Max_cycle;Signal;HPM_P1;HPM_P2
2021/12/02 00:00:55;;;;;;;11.80;0.90;;;5.70;99.90;;;;;;5010149;28;20412;-76
2021/12/02 00:03:21;;;;;;;1.50;0.60;;;5.70;99.90;;;;;;4998352;28;20398;-75
2021/12/02 00:05:46;;;;;;;0.70;0.68;;;5.70;99.90;;;;;;4993771;28;20409;-75
2021/12/02 00:08:12;;;;;;;0.70;0.60;;;5.80;99.90;;;;;;4995670;28;20469;-74
2021/12/02 00:10:40;;;;;;;0.70;0.50;;;5.70;99.90;;;;;;5002580;28;20401;-76
2021/12/02 00:13:06;;;;;;;0.70;0.50;;;5.70;99.90;;;;;;4995983;28;20394;-76
2021/12/02 00:15:38;;;;;;;2.93;0.87;;;5.70;99.90;;;;;;5005443;28;20408;-73
2021/12/02 00:23:29;;;;;;;0.70;0.50;;;5.80;99.90;;;;;;5010259;28;20963;-74
2021/12/02 00:25:57;;;;;;;1.20;1.00;;;5.70;99.90;;;;;;4998625;28;20402;-75
2021/12/02 00:28:27;;;;;;;0.70;0.50;;;5.80;99.90;;;;;;4995372;28;20402;-75
2021/12/02 00:31:00;;;;;;;0.70;0.50;;;5.80;99.90;;;;;;5004655;28;20510;-75
2021/12/02 00:33:29;;;;;;;0.80;0.60;;;5.80;99.90;;;;;;4995121;28;20395;-74
2021/12/02 00:35:55;;;;;;;13.88;0.77;;;5.80;99.90;;;;;;5003482;28;20618;-74
2021/12/02 00:38:23;;;;;;;1.20;0.70;;;5.80;99.90;;;;;;4995909;28;20489;-75
2021/12/02 00:40:50;;;;;;;0.70;0.50;;;5.80;99.90;;;;;;5003604;28;20425;-75
2021/12/02 00:43:16;;;;;;;0.70;0.50;;;5.80;99.90;;;;;;5016206;28;20730;-75
2021/12/02 00:45:43;;;;;;;1.38;0.95;;;5.80;99.90;;;;;;5006779;28;20512;-75
2021/12/02 00:48:10;;;;;;;1.60;1.50;;;5.80;99.90;;;;;;4996728;28;20399;-75
2021/12/02 00:50:42;;;;;;;0.70;0.50;;;5.80;99.90;;;;;;4996353;28;20418;-75
2021/12/02 00:53:10;;;;;;;6.80;1.10;;;5.80;99.90;;;;;;5004901;28;20893;-75
2021/12/02 00:55:38;;;;;;;0.90;0.70;;;5.90;99.90;;;;;;5013470;28;20395;-73
2021/12/02 00:58:05;;;;;;;1.10;0.60;;;5.90;99.90;;;;;;4995562;28;20924;-76
2021/12/02 01:00:31;;;;;;;0.80;0.80;;;5.90;99.90;;;;;;4998747;28;20424;-75
2021/12/02 01:03:02;;;;;;;0.75;0.75;;;6.00;99.90;;;;;;5013061;28;20411;-75
2021/12/02 01:05:30;;;;;;;1.20;0.60;;;5.90;99.90;;;;;;5013941;28;20368;-76
2021/12/02 01:07:59;;;;;;;1.50;0.90;;;5.90;99.90;;;;;;5012645;28;20397;-76
2021/12/02 01:10:25;;;;;;;1.00;0.77;;;5.90;99.90;;;;;;5012264;28;20393;-74
2021/12/02 01:12:51;;;;;;;2.20;2.00;;;5.90;99.90;;;;;;5012864;28;20916;-76
2021/12/02 01:15:16;;;;;;;0.70;0.60;;;5.90;99.90;;;;;;5006277;28;20424;-74
2021/12/02 01:17:42;;;;;;;0.70;0.70;;;5.90;99.90;;;;;;5011580;28;20393;-76
2021/12/02 01:20:08;;;;;;;0.70;0.60;;;5.90;99.90;;;;;;5012353;28;20420;-74
2021/12/02 01:22:38;;;;;;;1.80;1.10;;;5.90;99.90;;;;;;5013347;28;20416;-73
2021/12/02 01:25:06;;;;;;;18.40;1.20;;;5.90;99.90;;;;;;5015311;28;20863;-75
2021/12/02 01:27:35;;;;;;;0.70;0.70;;;5.90;99.90;;;;;;5012819;28;20898;-74
2021/12/02 01:30:03;;;;;;;1.05;1.05;;;6.00;99.90;;;;;;5018090;28;20515;-75
2021/12/02 01:32:33;;;;;;;1.20;1.10;;;6.00;99.90;;;;;;5019977;28;20483;-75
2021/12/02 01:35:03;;;;;;;0.70;0.60;;;5.90;99.90;;;;;;5013144;28;20445;-74
2021/12/02 01:37:28;;;;;;;1.50;1.40;;;6.00;99.90;;;;;;4997203;28;20448;-75
2021/12/02 01:39:56;;;;;;;1.05;0.55;;;6.00;99.90;;;;;;4994925;28;20795;-74
2021/12/02 01:42:23;;;;;;;3.50;1.40;;;6.00;99.90;;;;;;4994260;28;20420;-75
2021/12/02 01:44:53;;;;;;;1.60;0.70;;;6.10;99.90;;;;;;4993760;28;20444;-74
2021/12/02 01:47:22;;;;;;;0.70;0.60;;;6.00;99.90;;;;;;4993797;28;20401;-74
2021/12/02 01:49:53;;;;;;;0.90;0.90;;;6.00;99.90;;;;;;5010901;28;20512;-75
2021/12/02 01:52:24;;;;;;;1.00;0.57;;;6.00;99.90;;;;;;5014905;28;20389;-74
2021/12/02 01:54:59;;;;;;;3.40;1.20;;;6.00;99.90;;;;;;5013657;28;20405;-73
2021/12/02 01:57:33;;;;;;;0.70;0.70;;;6.00;99.90;;;;;;5012255;28;20469;-73
2021/12/02 02:00:05;;;;;;;2.70;1.10;;;6.00;99.90;;;;;;5012741;28;20741;-74
2021/12/02 02:02:36;;;;;;;0.90;0.70;;;6.00;99.90;;;;;;5004063;28;20421;-75
2021/12/02 02:05:06;;;;;;;0.70;0.60;;;6.00;99.90;;;;;;4993042;28;20383;-73
2021/12/02 02:07:36;;;;;;;0.80;0.80;;;6.00;99.90;;;;;;4992894;28;20747;-73
2021/12/02 02:10:03;;;;;;;0.70;0.60;;;6.00;99.90;;;;;;4996521;28;20458;-73
2021/12/02 02:12:28;;;;;;;1.00;0.80;;;6.00;99.90;;;;;;5012130;28;20393;-73
2021/12/02 02:14:56;;;;;;;1.00;0.90;;;6.00;99.90;;;;;;5012336;28;20389;-73
2021/12/02 02:17:33;;;;;;;0.70;0.40;;;6.00;99.90;;;;;;5004688;28;20400;-73
2021/12/02 02:20:00;;;;;;;0.70;0.70;;;6.00;99.90;;;;;;5012422;28;20388;-73
2021/12/02 02:22:26;;;;;;;0.70;0.70;;;6.00;99.90;;;;;;5012239;28;20413;-73
2021/12/02 02:24:53;;;;;;;0.70;0.50;;;5.90;99.90;;;;;;5011978;28;20455;-73
2021/12/02 02:27:20;;;;;;;4.25;1.02;;;5.90;99.90;;;;;;5010396;28;20399;-73
2021/12/02 02:29:46;;;;;;;0.70;0.50;;;5.90;99.90;;;;;;5004468;28;20449;-73
2021/12/02 02:32:11;;;;;;;9.30;0.83;;;5.90;99.90;;;;;;4991041;28;20394;-73
2021/12/02 02:34:37;;;;;;;7.70;0.60;;;5.80;99.90;;;;;;5006100;28;20882;-73
2021/12/02 02:37:05;;;;;;;2.50;0.70;;;5.80;99.90;;;;;;5012538;28;20405;-73
2021/12/02 02:39:33;;;;;;;0.70;0.50;;;5.80;99.90;;;;;;4996629;28;20433;-73
2021/12/02 02:42:01;;;;;;;0.80;0.80;;;5.70;99.90;;;;;;4992541;28;20505;-72
2021/12/02 02:44:29;;;;;;;0.70;0.50;;;5.70;99.90;;;;;;4992823;28;20407;-74
2021/12/02 02:46:55;;;;;;;0.70;0.50;;;5.60;99.90;;;;;;4992266;28;20812;-74
2021/12/02 02:49:21;;;;;;;0.70;0.40;;;5.60;99.90;;;;;;4991872;28;20405;-74
2021/12/02 02:51:48;;;;;;;0.90;0.70;;;5.70;99.90;;;;;;4991833;28;20887;-73
2021/12/02 02:54:16;;;;;;;0.70;0.40;;;5.70;99.90;;;;;;4991853;28;20406;-73
2021/12/02 02:56:51;;;;;;;3.47;0.77;;;5.70;99.90;;;;;;4992290;28;20413;-73
2021/12/02 03:02:07;;;;;;;0.70;0.60;;;5.70;99.90;;;;;;5005776;28;20409;-74
2021/12/02 03:04:41;;;;;;;1.20;0.80;;;5.70;99.90;;;;;;5011885;28;20389;-73
2021/12/02 03:07:29;;;;;;;1.10;0.80;;;5.70;99.90;;;;;;5011737;28;20891;-73
2021/12/02 03:10:11;;;;;;;0.70;0.50;;;5.60;99.90;;;;;;5011823;28;20408;-73
2021/12/02 03:12:40;;;;;;;0.70;0.50;;;5.70;99.90;;;;;;4992243;28;20395;-73
2021/12/02 03:17:33;;;;;;;1.20;0.90;;;5.70;99.90;;;;;;4999016;28;20393;-74
2021/12/02 03:19:59;;;;;;;0.70;0.70;;;5.80;99.90;;;;;;5015545;28;20483;-73
2021/12/02 03:22:25;;;;;;;1.60;0.70;;;5.80;99.90;;;;;;5016333;28;20451;-74
2021/12/02 03:24:51;;;;;;;1.10;0.50;;;5.60;99.90;;;;;;5007542;28;20906;-73
2021/12/02 03:27:16;;;;;;;0.70;0.40;;;5.60;99.90;;;;;;4992522;28;20387;-73
2021/12/02 03:29:42;;;;;;;0.70;0.40;;;5.60;99.90;;;;;;4992367;28;20386;-73
2021/12/02 03:32:09;;;;;;;0.70;0.50;;;5.70;99.90;;;;;;5001107;28;20420;-74
2021/12/02 03:34:35;;;;;;;0.70;0.50;;;5.60;99.90;;;;;;5011948;28;20753;-74
2021/12/02 03:37:01;;;;;;;1.40;0.80;;;5.50;99.90;;;;;;5011864;28;20825;-74
2021/12/02 03:39:27;;;;;;;1.00;0.90;;;5.60;99.90;;;;;;5013303;28;20454;-73
2021/12/02 03:41:54;;;;;;;0.70;0.45;;;5.50;99.30;;;;;;5015222;28;20492;-74
2021/12/02 03:44:20;;;;;;;0.70;0.50;;;5.50;99.90;;;;;;5013761;28;20439;-74
2021/12/02 03:46:45;;;;;;;0.70;0.40;;;5.60;99.90;;;;;;5015065;28;20416;-74
2021/12/02 03:49:11;;;;;;;0.70;0.60;;;6.10;97.90;;;;;;5014808;28;20466;-73
2021/12/02 03:51:37;;;;;;;1.60;0.70;;;5.60;99.90;;;;;;5017116;28;20469;-73
2021/12/02 03:54:03;;;;;;;0.70;0.50;;;5.60;99.90;;;;;;5017705;28;20936;-73
2021/12/02 03:56:29;;;;;;;1.30;0.70;;;5.50;98.50;;;;;;5017519;28;20412;-73
2021/12/02 03:58:54;;;;;;;0.70;0.40;;;5.50;99.90;;;;;;5008957;28;20402;-73
2021/12/02 04:01:22;;;;;;;0.80;0.60;;;5.50;98.90;;;;;;4994913;28;20420;-72
2021/12/02 04:03:48;;;;;;;0.70;0.50;;;5.50;99.90;;;;;;5000972;28;20400;-73
2021/12/02 04:06:15;;;;;;;0.70;0.40;;;5.40;97.20;;;;;;5023895;28;20395;-73
2021/12/02 04:11:33;;;;;;;0.70;0.40;;;5.50;97.00;;;;;;5028477;28;20388;-73
2021/12/02 04:14:07;;;;;;;1.00;0.70;;;5.30;99.90;;;;;;5029067;28;20404;-72
2021/12/02 04:16:36;;;;;;;0.70;0.40;;;5.30;98.80;;;;;;5015493;28;20396;-73
2021/12/02 04:19:09;;;;;;;0.70;0.50;;;5.30;99.90;;;;;;5014035;28;20458;-73
2021/12/02 04:21:36;;;;;;;0.70;0.50;;;5.30;99.90;;;;;;5014255;28;20424;-73
2021/12/02 04:24:02;;;;;;;0.80;0.50;;;5.30;99.90;;;;;;5014914;28;20384;-73
2021/12/02 04:26:28;;;;;;;0.70;0.50;;;5.20;99.00;;;;;;5014470;28;20381;-73
2021/12/02 04:28:54;;;;;;;0.70;0.50;;;5.30;99.90;;;;;;5015371;28;20737;-74
2021/12/02 04:31:19;;;;;;;0.70;0.50;;;5.30;97.60;;;;;;5013187;28;20401;-74
2021/12/02 04:33:46;;;;;;;0.70;0.50;;;5.30;99.90;;;;;;5013346;28;20572;-74
2021/12/02 04:36:11;;;;;;;0.70;0.50;;;5.20;99.90;;;;;;4995964;28;20402;-75
2021/12/02 04:38:37;;;;;;;0.80;0.70;;;5.50;99.90;;;;;;4994596;28;20397;-73
2021/12/02 04:41:03;;;;;;;0.90;0.60;;;5.50;99.70;;;;;;4994314;28;20410;-73
2021/12/02 04:43:29;;;;;;;0.70;0.50;;;5.50;99.90;;;;;;4994173;28;20382;-73
2021/12/02 04:45:55;;;;;;;0.73;0.70;;;5.40;99.90;;;;;;4996216;28;20402;-74
2021/12/02 04:48:21;;;;;;;1.30;0.70;;;5.50;99.90;;;;;;5000113;28;20414;-73
2021/12/02 04:50:47;;;;;;;0.70;0.50;;;5.30;98.80;;;;;;4994125;28;20430;-73
2021/12/02 04:53:13;;;;;;;0.70;0.40;;;5.00;99.90;;;;;;4993707;28;20434;-73
2021/12/02 04:55:39;;;;;;;0.70;0.50;;;4.50;99.90;;;;;;4994048;28;20883;-73
2021/12/02 04:58:04;;;;;;;0.70;0.50;;;4.10;99.90;;;;;;4993513;28;20445;-73
2021/12/02 05:00:30;;;;;;;0.70;0.50;;;4.00;99.90;;;;;;4994881;28;20872;-73
2021/12/02 05:02:56;;;;;;;0.70;0.50;;;3.90;99.90;;;;;;5012586;28;20408;-74
2021/12/02 05:05:23;;;;;;;23.20;0.80;;;3.90;99.90;;;;;;5014651;28;20484;-76
2021/12/02 05:07:52;;;;;;;0.70;0.50;;;3.90;99.90;;;;;;5013068;28;20397;-75
2021/12/02 05:10:18;;;;;;;0.70;0.50;;;3.90;99.90;;;;;;5013352;28;20397;-74
2021/12/02 05:12:44;;;;;;;0.70;0.40;;;3.90;99.90;;;;;;5013630;28;20397;-75
2021/12/02 05:15:09;;;;;;;0.70;0.50;;;4.00;99.90;;;;;;5011506;28;20396;-73
2021/12/02 05:17:35;;;;;;;0.70;0.50;;;4.00;99.90;;;;;;4994385;28;20390;-77
2021/12/02 05:20:01;;;;;;;1.00;0.60;;;4.00;99.90;;;;;;5009114;28;20500;-74
2021/12/02 05:22:26;;;;;;;0.70;0.50;;;4.00;99.90;;;;;;5013477;28;20720;-75
2021/12/02 05:24:52;;;;;;;0.70;0.40;;;4.10;99.90;;;;;;5013644;28;20389;-74
2021/12/02 05:27:17;;;;;;;0.98;0.98;;;4.10;99.90;;;;;;5025954;28;20400;-74
2021/12/02 05:29:43;;;;;;;1.40;0.80;;;4.10;99.90;;;;;;5020410;28;20435;-74
2021/12/02 05:32:08;;;;;;;0.70;0.50;;;4.20;99.90;;;;;;5028383;28;20765;-75
2021/12/02 05:34:34;;;;;;;0.70;0.60;;;4.30;99.90;;;;;;5012446;28;20399;-73
2021/12/02 05:37:00;;;;;;;0.80;0.53;;;4.20;99.90;;;;;;5013010;28;20463;-74
2021/12/02 05:39:25;;;;;;;0.70;0.40;;;4.20;99.90;;;;;;5012937;28;20462;-75
2021/12/02 05:41:53;;;;;;;6.10;0.57;;;4.20;99.90;;;;;;5013091;28;20416;-75
2021/12/02 05:44:19;;;;;;;1.20;0.73;;;4.20;99.90;;;;;;5010365;28;20401;-73
2021/12/02 05:46:45;;;;;;;1.40;0.60;;;4.30;99.90;;;;;;5012149;28;20394;-75
2021/12/02 05:49:10;;;;;;;0.70;0.50;;;4.30;99.90;;;;;;5012640;28;20392;-73
2021/12/02 05:51:36;;;;;;;0.70;0.40;;;4.30;99.90;;;;;;5009631;28;20394;-72
2021/12/02 05:54:02;;;;;;;1.20;1.10;;;4.40;99.90;;;;;;4993753;28;20433;-73
2021/12/02 05:56:27;;;;;;;0.70;0.60;;;4.40;99.90;;;;;;4997019;28;20457;-77
2021/12/02 05:58:53;;;;;;;0.70;0.47;;;4.40;99.90;;;;;;5021089;28;20750;-73
2021/12/02 06:01:18;;;;;;;1.10;0.70;;;4.50;99.90;;;;;;5025027;28;20412;-74
2021/12/02 06:03:44;;;;;;;1.00;0.90;;;4.50;99.90;;;;;;5005687;28;20390;-74
2021/12/02 06:06:10;;;;;;;0.70;0.50;;;4.50;99.90;;;;;;4991547;28;20390;-75
2021/12/02 06:08:36;;;;;;;0.73;0.57;;;4.50;99.90;;;;;;4990901;28;20712;-74
2021/12/02 06:11:02;;;;;;;0.70;0.50;;;4.50;99.90;;;;;;4998855;28;20774;-75
2021/12/02 06:13:28;;;;;;;2.50;0.80;;;4.50;99.90;;;;;;5012168;28;20484;-75
2021/12/02 06:15:53;;;;;;;0.70;0.50;;;4.50;99.90;;;;;;5003631;28;20403;-75
2021/12/02 06:18:19;;;;;;;1.30;0.60;;;4.50;99.90;;;;;;4994340;28;20394;-74
2021/12/02 06:20:51;;;;;;;0.80;0.60;;;4.60;99.90;;;;;;5010314;28;20506;-74
2021/12/02 06:23:17;;;;;;;2.30;0.70;;;4.60;99.90;;;;;;5003805;28;20412;-74
2021/12/02 06:25:45;;;;;;;0.70;0.50;;;4.60;99.90;;;;;;5015505;28;20397;-74
2021/12/02 06:28:11;;;;;;;4.75;1.48;;;4.60;99.90;;;;;;5014764;28;20941;-74
2021/12/02 06:30:37;;;;;;;0.82;0.50;;;4.60;99.90;;;;;;5007631;28;20924;-75
2021/12/02 06:33:02;;;;;;;1.40;0.70;;;4.60;99.90;;;;;;5008506;28;20388;-75
2021/12/02 06:35:28;;;;;;;0.70;0.50;;;4.60;99.90;;;;;;5011899;28;20416;-74
2021/12/02 06:37:55;;;;;;;1.30;1.00;;;4.60;99.90;;;;;;5005092;28;20406;-76
2021/12/02 06:40:20;;;;;;;0.98;0.65;;;4.60;99.90;;;;;;5000358;28;20767;-75
2021/12/02 06:42:46;;;;;;;1.60;1.50;;;4.60;99.90;;;;;;4991272;28;20429;-73
2021/12/02 06:45:12;;;;;;;0.90;0.70;;;4.70;99.90;;;;;;4993578;28;20422;-75
2021/12/02 06:47:41;;;;;;;0.70;0.50;;;4.70;99.90;;;;;;5006629;28;20406;-74
2021/12/02 06:50:18;;;;;;;1.20;0.60;;;4.70;99.90;;;;;;4999988;28;20393;-75
2021/12/02 06:52:49;;;;;;;0.70;0.40;;;4.80;99.90;;;;;;5004815;28;20659;-75
2021/12/02 06:55:15;;;;;;;0.70;0.60;;;4.80;99.90;;;;;;4995000;28;20921;-75
2021/12/02 06:57:41;;;;;;;1.10;0.70;;;4.80;99.90;;;;;;4992360;28;20394;-74
2021/12/02 07:00:11;;;;;;;0.70;0.60;;;4.80;99.90;;;;;;4999467;28;20437;-74
2021/12/02 07:02:38;;;;;;;2.00;0.80;;;4.80;99.70;;;;;;5007272;28;20408;-75
2021/12/02 07:05:06;;;;;;;0.70;0.50;;;4.90;98.80;;;;;;5009443;28;20396;-75
2021/12/02 07:07:35;;;;;;;0.70;0.50;;;4.80;97.30;;;;;;5005844;28;20398;-75
2021/12/02 07:10:06;;;;;;;1.60;0.70;;;4.80;96.20;;;;;;4994761;28;20419;-75
2021/12/02 07:12:37;;;;;;;1.40;0.80;;;4.80;99.90;;;;;;5009071;28;20401;-75
2021/12/02 07:15:07;;;;;;;0.70;0.52;;;4.80;97.10;;;;;;4993284;28;20716;-72
2021/12/02 07:17:33;;;;;;;0.70;0.50;;;4.80;93.20;;;;;;4991767;28;20449;-73
2021/12/02 07:20:03;;;;;;;0.70;0.60;;;4.80;96.90;;;;;;5002090;28;20441;-71
2021/12/02 07:22:29;;;;;;;2.50;0.70;;;4.80;99.90;;;;;;4999120;28;20773;-72
2021/12/02 07:24:55;;;;;;;0.70;0.60;;;4.90;88.80;;;;;;5009112;28;20407;-73
2021/12/02 07:27:21;;;;;;;1.10;0.70;;;5.00;93.20;;;;;;4999042;28;20395;-72
2021/12/02 07:29:46;;;;;;;0.90;0.60;;;4.90;89.80;;;;;;4993266;28;20413;-72
2021/12/02 07:32:12;;;;;;;16.30;1.27;;;4.80;93.80;;;;;;4998699;28;20402;-72
2021/12/02 07:34:43;;;;;;;0.93;0.50;;;4.80;96.20;;;;;;4990936;28;20401;-73
2021/12/02 07:37:14;;;;;;;0.70;0.50;;;4.80;97.60;;;;;;4991301;28;20469;-73
2021/12/02 07:39:40;;;;;;;0.70;0.50;;;4.80;88.60;;;;;;5001918;28;20832;-72
2021/12/02 07:42:06;;;;;;;0.70;0.60;;;4.70;91.90;;;;;;5009109;28;20460;-74
2021/12/02 07:44:35;;;;;;;0.70;0.50;;;4.60;90.60;;;;;;5005836;28;20412;-72
2021/12/02 07:47:01;;;;;;;0.80;0.60;;;4.60;94.90;;;;;;5010340;28;20420;-72
2021/12/02 07:49:27;;;;;;;0.70;0.60;;;4.60;88.80;;;;;;5003808;28;20733;-72
2021/12/02 07:51:58;;;;;;;3.60;0.70;;;4.60;91.90;;;;;;5004051;28;20402;-73
2021/12/02 07:54:24;;;;;;;0.80;0.80;;;4.60;95.70;;;;;;5017696;28;20416;-81
2021/12/02 07:56:49;;;;;;;1.00;0.90;;;4.60;93.80;;;;;;5005602;28;20397;-72
2021/12/02 07:59:19;;;;;;;1.20;0.50;;;4.70;92.80;;;;;;5010011;28;20487;-73
2021/12/02 08:01:45;;;;;;;1.10;0.60;;;4.60;85.20;;;;;;5004481;28;20502;-75
2021/12/02 08:04:11;;;;;;;1.00;0.80;;;4.50;85.70;;;;;;5004685;28;21037;-72
2021/12/02 08:06:37;;;;;;;0.80;0.80;;;4.50;87.90;;;;;;5004395;28;20481;-73
2021/12/02 08:09:05;;;;;;;0.70;0.50;;;4.50;88.90;;;;;;5001929;28;20523;-77
2021/12/02 08:11:31;;;;;;;1.00;0.55;;;4.50;90.10;;;;;;5011834;28;20866;-74
2021/12/02 08:13:57;;;;;;;0.70;0.50;;;4.70;94.40;;;;;;4994497;28;20421;-73
2021/12/02 08:16:23;;;;;;;0.70;0.70;;;4.70;86.40;;;;;;5011597;28;20407;-75
2021/12/02 08:18:48;;;;;;;0.70;0.40;;;4.80;83.60;;;;;;5002939;28;20913;-76
2021/12/02 08:21:14;;;;;;;1.90;0.60;;;4.80;79.50;;;;;;5006276;28;20463;-75
2021/12/02 08:23:40;;;;;;;0.70;0.50;;;4.80;79.00;;;;;;5004578;28;20401;-74
2021/12/02 08:26:06;;;;;;;0.70;0.50;;;4.70;80.70;;;;;;5005589;28;20419;-74
2021/12/02 08:28:31;;;;;;;1.13;0.63;;;4.80;74.30;;;;;;5010630;28;20393;-73
2021/12/02 08:30:58;;;;;;;0.70;0.40;;;4.80;76.40;;;;;;5011838;28;20738;-75
2021/12/02 08:33:24;;;;;;;1.42;0.70;;;4.90;72.50;;;;;;5015305;28;20816;-74
2021/12/02 08:35:50;;;;;;;0.70;0.50;;;4.80;76.20;;;;;;5003693;28;20603;-74
2021/12/02 08:38:18;;;;;;;0.70;0.50;;;4.80;70.70;;;;;;5008799;28;20397;-74
2021/12/02 08:40:47;;;;;;;0.90;0.60;;;4.80;72.10;;;;;;5020466;28;20419;-73
2021/12/02 08:43:13;;;;;;;1.23;1.00;;;4.80;68.50;;;;;;5017194;28;20408;-75
2021/12/02 08:45:41;;;;;;;1.20;1.10;;;4.80;68.50;;;;;;5015543;28;20474;-74
2021/12/02 08:48:07;;;;;;;0.70;0.40;;;4.80;64.10;;;;;;5015693;28;20384;-77
2021/12/02 08:50:35;;;;;;;0.70;0.50;;;4.80;64.80;;;;;;5015747;28;20797;-77
2021/12/02 08:53:02;;;;;;;0.70;0.40;;;4.60;65.50;;;;;;5016441;28;20495;-77
2021/12/02 08:55:32;;;;;;;0.70;0.50;;;4.60;66.80;;;;;;5019213;28;20408;-75
2021/12/02 08:57:59;;;;;;;0.70;0.45;;;4.60;67.20;;;;;;5011442;28;20725;-76
2021/12/02 09:00:32;;;;;;;1.00;0.50;;;4.60;70.40;;;;;;5013167;28;20597;-76
2021/12/02 09:02:57;;;;;;;0.70;0.50;;;4.70;73.30;;;;;;5001862;28;20491;-75
2021/12/02 09:05:23;;;;;;;0.70;0.50;;;4.70;67.40;;;;;;5003911;28;20395;-75
2021/12/02 09:07:49;;;;;;;0.70;0.50;;;4.80;71.30;;;;;;5021557;28;20397;-78
2021/12/02 09:10:15;;;;;;;0.70;0.70;;;4.90;71.30;;;;;;5018671;28;20439;-77
2021/12/02 09:12:42;;;;;;;0.70;0.63;;;4.90;74.20;;;;;;5017174;28;20421;-78
2021/12/02 09:15:08;;;;;;;3.28;1.15;;;5.10;68.10;;;;;;5012703;28;20410;-77
2021/12/02 09:17:36;;;;;;;0.70;0.50;;;5.10;68.80;;;;;;5018640;28;20777;-77
2021/12/02 09:20:03;;;;;;;2.20;0.60;;;4.90;61.90;;;;;;5024242;28;20373;-77
2021/12/02 09:22:28;;;;;;;0.70;0.40;;;4.90;65.50;;;;;;5027911;28;20422;-73
2021/12/02 09:24:54;;;;;;;0.70;0.40;;;4.80;64.20;;;;;;5025972;28;20425;-75
2021/12/02 09:27:19;;;;;;;0.60;0.40;;;4.70;65.20;;;;;;5009366;28;20400;-75
2021/12/02 09:29:45;;;;;;;0.70;0.50;;;4.80;66.30;;;;;;5009816;28;20393;-79
2021/12/02 09:32:11;;;;;;;0.70;0.40;;;4.80;68.20;;;;;;5020831;28;20427;-76
2021/12/02 09:34:37;;;;;;;0.77;0.77;;;5.00;62.80;;;;;;5009995;28;20787;-78
2021/12/02 09:37:03;;;;;;;0.70;0.60;;;4.90;66.10;;;;;;5008629;28;20405;-76
2021/12/02 09:39:33;;;;;;;2.57;0.70;;;4.90;64.20;;;;;;5012066;28;20454;-76
2021/12/02 09:42:00;;;;;;;0.70;0.60;;;4.90;65.60;;;;;;5009065;28;20413;-76
2021/12/02 09:44:26;;;;;;;0.70;0.50;;;4.90;68.90;;;;;;4996522;28;20532;-76
2021/12/02 09:46:52;;;;;;;0.70;0.50;;;5.00;65.90;;;;;;4993184;28;20461;-75
2021/12/02 09:49:18;;;;;;;2.60;0.60;;;5.10;67.20;;;;;;4994575;28;20390;-75
2021/12/02 09:52:09;;;;;;;0.70;0.50;;;5.70;61.90;;;;;;4996218;28;20382;-77
2021/12/02 09:54:45;;;;;;;0.70;0.50;;;5.50;60.60;;;;;;5015453;28;20408;-76
2021/12/02 09:57:17;;;;;;;3.90;0.60;;;5.50;56.30;;;;;;4998196;28;20502;-76
2021/12/02 10:02:15;;;;;;;0.70;0.50;;;5.60;56.20;;;;;;4994912;28;20453;-76
2021/12/02 10:04:48;;;;;;;0.70;0.50;;;5.50;56.80;;;;;;4995514;28;20457;-75
2021/12/02 10:13:04;;;;;;;1.10;0.60;;;5.60;54.80;;;;;;5006691;28;20944;-76
2021/12/02 10:15:30;;;;;;;1.30;0.60;;;5.60;56.70;;;;;;5012693;28;20827;-75
2021/12/02 10:18:07;;;;;;;1.20;1.00;;;5.70;56.50;;;;;;5014722;28;20428;-76
2021/12/02 10:20:37;;;;;;;0.98;0.88;;;5.90;56.30;;;;;;4995458;28;20405;-77
2021/12/02 10:23:28;;;;;;;0.70;0.50;;;6.10;51.80;;;;;;5001619;28;20416;-76
2021/12/02 10:26:00;;;;;;;0.90;0.60;;;6.10;51.90;;;;;;5010432;28;20842;-76
2021/12/02 10:28:29;;;;;;;0.70;0.50;;;6.10;50.20;;;;;;5014778;28;20392;-76
2021/12/02 10:31:00;;;;;;;3.90;0.70;;;6.10;49.80;;;;;;5016729;28;20870;-75
2021/12/02 10:33:42;;;;;;;0.70;0.50;;;6.20;47.80;;;;;;5020417;28;20416;-76
2021/12/02 10:36:29;;;;;;;0.80;0.70;;;6.20;47.40;;;;;;5017639;28;20408;-75
2021/12/02 10:38:58;;;;;;;1.10;0.80;;;6.00;49.50;;;;;;5018427;28;20384;-75
2021/12/02 10:41:27;;;;;;;0.70;0.50;;;6.10;50.00;;;;;;5019145;28;20409;-77
2021/12/02 10:44:16;;;;;;;0.80;0.50;;;6.20;47.20;;;;;;5019811;28;20532;-75
2021/12/02 10:46:54;;;;;;;1.05;0.95;;;6.10;46.80;;;;;;4998172;28;20453;-76
2021/12/02 10:49:21;;;;;;;0.80;0.57;;;6.00;47.70;;;;;;4995348;28;20446;-75
2021/12/02 10:51:52;;;;;;;0.70;0.50;;;6.00;49.60;;;;;;5004345;28;20407;-76
2021/12/02 10:54:27;;;;;;;0.70;0.40;;;6.20;49.40;;;;;;5015549;28;20493;-76
2021/12/02 10:56:56;;;;;;;1.30;0.90;;;6.00;46.60;;;;;;5005432;28;20398;-75
2021/12/02 10:59:42;;;;;;;0.70;0.40;;;5.90;48.40;;;;;;5000397;28;20864;-76
2021/12/02 11:02:30;;;;;;;0.70;0.50;;;6.00;47.10;;;;;;4994001;28;20441;-75
2021/12/02 11:05:02;;;;;;;0.70;0.40;;;6.10;46.40;;;;;;4994069;28;20481;-75
2021/12/02 11:07:33;;;;;;;0.80;0.60;;;5.80;47.90;;;;;;4994094;28;20406;-76
2021/12/02 11:10:08;;;;;;;0.90;0.80;;;5.70;48.70;;;;;;4996543;28;20445;-76
2021/12/02 11:12:36;;;;;;;0.70;0.40;;;5.80;51.40;;;;;;5012618;28;20461;-75
2021/12/02 11:15:12;;;;;;;0.70;0.45;;;5.60;46.80;;;;;;5013156;28;20408;-75
2021/12/02 11:17:48;;;;;;;0.70;0.50;;;5.60;49.00;;;;;;5016433;28;20388;-76
2021/12/02 11:20:38;;;;;;;0.70;0.50;;;5.80;49.70;;;;;;5014116;28;20400;-75
2021/12/02 11:23:07;;;;;;;1.10;0.80;;;5.90;46.40;;;;;;5029845;28;20425;-76
2021/12/02 11:25:37;;;;;;;0.80;0.80;;;5.70;44.50;;;;;;5021090;28;20453;-76
2021/12/02 11:28:06;;;;;;;0.80;0.60;;;5.60;46.70;;;;;;5018839;28;20469;-76
2021/12/02 11:30:32;;;;;;;0.70;0.40;;;5.60;48.00;;;;;;5020920;28;20403;-76
2021/12/02 11:33:03;;;;;;;0.80;0.50;;;5.50;48.20;;;;;;5017631;28;20395;-76
2021/12/02 11:35:40;;;;;;;0.70;0.40;;;5.60;48.30;;;;;;5007364;28;20408;-76
2021/12/02 11:38:09;;;;;;;0.70;0.40;;;5.60;46.10;;;;;;5000522;28;20470;-76
2021/12/02 11:40:40;;;;;;;0.70;0.45;;;5.70;47.40;;;;;;5021536;28;20395;-76
2021/12/02 11:43:08;;;;;;;0.70;0.50;;;5.70;48.10;;;;;;5022495;28;20439;-77
2021/12/02 11:45:43;;;;;;;0.70;0.50;;;5.80;47.90;;;;;;5018845;28;20400;-76
2021/12/02 11:48:09;;;;;;;0.70;0.40;;;5.90;47.40;;;;;;5020380;28;20423;-76
2021/12/02 11:50:34;;;;;;;0.80;0.60;;;6.00;46.20;;;;;;5020870;28;20397;-76
2021/12/02 11:53:00;;;;;;;0.80;0.80;;;6.20;45.20;;;;;;5006961;28;20402;-77
2021/12/02 11:55:40;;;;;;;0.70;0.60;;;6.20;42.20;;;;;;5003537;28;20417;-76
2021/12/02 11:58:06;;;;;;;0.70;0.50;;;6.10;43.50;;;;;;5016034;28;20454;-75
2021/12/02 12:00:34;;;;;;;0.70;0.50;;;6.00;45.20;;;;;;5023297;28;20392;-75
2021/12/02 12:03:02;;;;;;;0.70;0.43;;;6.00;44.90;;;;;;5022165;28;20409;-76
2021/12/02 12:05:37;;;;;;;0.70;0.60;;;6.10;43.20;;;;;;5025558;28;20385;-76
2021/12/02 12:08:04;;;;;;;0.70;0.50;;;6.00;43.40;;;;;;5027602;28;20503;-76
2021/12/02 12:10:38;;;;;;;0.70;0.53;;;6.10;44.30;;;;;;5026636;28;20399;-75
2021/12/02 12:13:20;;;;;;;1.00;0.80;;;5.90;46.40;;;;;;5016310;28;20417;-75
2021/12/02 12:15:58;;;;;;;0.70;0.45;;;5.70;46.00;;;;;;5006669;28;20473;-75
2021/12/02 12:18:39;;;;;;;0.70;0.50;;;5.60;47.40;;;;;;5010141;28;21107;-76
2021/12/02 12:21:12;;;;;;;0.70;0.40;;;5.60;49.50;;;;;;5014167;28;20924;-76
2021/12/02 12:23:41;;;;;;;0.70;0.60;;;5.70;50.40;;;;;;5015543;28;20406;-76
2021/12/02 12:26:17;;;;;;;0.70;0.50;;;5.80;49.80;;;;;;5024039;28;20403;-76
2021/12/02 12:29:08;;;;;;;0.70;0.50;;;5.70;49.10;;;;;;4999074;28;20390;-78
2021/12/02 12:32:02;;;;;;;0.73;0.57;;;5.80;48.70;;;;;;5014083;28;20909;-76
2021/12/02 12:34:39;;;;;;;0.82;0.52;;;5.80;46.70;;;;;;4998452;28;20414;-75
2021/12/02 12:40:41;;;;;;;0.70;0.50;;;5.90;45.90;;;;;;5005722;28;20962;-76
2021/12/02 12:43:07;;;;;;;0.70;0.60;;;5.90;45.40;;;;;;4997833;28;20428;-76
2021/12/02 12:45:37;;;;;;;0.70;0.50;;;5.80;44.90;;;;;;5015155;28;20765;-78
2021/12/02 12:48:06;;;;;;;0.70;0.50;;;5.70;45.10;;;;;;5015898;28;20409;-77
2021/12/02 12:50:42;;;;;;;0.90;0.60;;;5.60;46.60;;;;;;5015112;28;20442;-77
2021/12/02 12:53:16;;;;;;;0.70;0.50;;;5.70;46.20;;;;;;5000665;28;20405;-78
2021/12/02 12:55:55;;;;;;;0.70;0.50;;;5.70;45.00;;;;;;5001983;28;20402;-76
2021/12/02 12:58:27;;;;;;;0.70;0.40;;;5.70;46.90;;;;;;5000121;28;20406;-78
2021/12/02 13:01:14;;;;;;;0.70;0.50;;;5.80;44.30;;;;;;5001938;28;20457;-76
2021/12/02 13:03:44;;;;;;;0.70;0.50;;;5.70;46.60;;;;;;5009679;28;20405;-76
2021/12/02 13:06:30;;;;;;;1.00;0.90;;;5.80;47.70;;;;;;5013902;28;20396;-75
2021/12/02 13:09:02;;;;;;;0.70;0.50;;;5.90;46.60;;;;;;5007833;28;20413;-76
2021/12/02 13:11:33;;;;;;;0.70;0.50;;;5.80;46.40;;;;;;5010926;28;20396;-77
2021/12/02 13:14:02;;;;;;;1.20;0.90;;;5.80;52.00;;;;;;5012772;28;20402;-75
2021/12/02 13:16:32;;;;;;;0.70;0.60;;;5.80;47.20;;;;;;5013904;28;20761;-76
2021/12/02 13:19:01;;;;;;;0.70;0.45;;;5.60;46.00;;;;;;5010550;28;20437;-76
2021/12/02 13:24:04;;;;;;;1.02;0.93;;;5.40;47.60;;;;;;5010956;28;20486;-75
2021/12/02 13:26:35;;;;;;;0.70;0.40;;;5.40;49.80;;;;;;5006228;28;20413;-74
2021/12/02 13:29:03;;;;;;;1.30;1.00;;;5.40;50.00;;;;;;5002603;28;20402;-75
2021/12/02 13:31:29;;;;;;;2.40;1.20;;;5.40;50.50;;;;;;5011482;28;20758;-75
2021/12/02 13:34:05;;;;;;;1.60;1.10;;;5.40;48.20;;;;;;5009455;28;20436;-74